Bridlington, United Kingdom
Current Conditions -  °F | °C
As of 6:50 AM on Sunday 21 Dec 2014 (Local Time) from EGXV Reporting Station
Broken Clouds Broken Clouds  
Wind Chill: 39°   Ceiling: 17000
Heat Index: 46°   Visibility: 6mi
Dew Point: 37°   Wind: 17mph
Humidity: 71%   Direction: 240°WSW
Pressure: 30.15"   Gusts: NA
Location:  54.08°N, 0.19°W
Report Text: EGXV 210650Z AUTO 24015KT 9999 FEW035/// BKN170/// 08/03 Q1021
Loading
Personal Weather Stations






























Interactive Weather Map New forecast layout! Learn more

10-Day Weather Forecast

Advertisements
Track Severe Weather on mobile